createdAt,value
2019-04-05T00:04:52.545Z,10.1
2019-04-05T00:09:55.046Z,10.2
2019-04-05T00:14:57.790Z,10.3
2019-04-05T00:19:59.947Z,10.3
2019-04-05T00:25:02.378Z,10.3
2019-04-05T00:30:04.870Z,10.3
2019-04-05T00:35:07.297Z,10.3
2019-04-05T00:40:09.739Z,10.3
2019-04-05T00:45:12.582Z,10.3
2019-04-05T00:50:14.663Z,10.2
2019-04-05T00:55:17.178Z,10.2
2019-04-05T01:00:19.579Z,10.2
2019-04-05T01:05:22.055Z,10.2
2019-04-05T01:10:24.493Z,10.1
2019-04-05T01:15:26.990Z,10.1
2019-04-05T01:20:29.416Z,10.1
2019-04-05T01:25:31.869Z,10.1
2019-04-05T01:30:34.356Z,10
2019-04-05T01:35:36.771Z,10
2019-04-05T01:40:39.273Z,10
2019-04-05T01:45:52.875Z,10
2019-04-05T01:50:44.188Z,10
2019-04-05T01:55:46.624Z,9.9
2019-04-05T02:00:49.121Z,9.8
2019-04-05T02:05:51.603Z,9.7
2019-04-05T02:10:53.984Z,9.7
2019-04-05T02:16:05.912Z,9.6
2019-04-05T02:20:58.903Z,9.6
2019-04-05T02:26:01.352Z,9.6
2019-04-05T02:31:03.865Z,9.6
2019-04-05T02:36:06.305Z,9.5
2019-04-05T02:41:08.734Z,9.5
2019-04-05T02:46:23.022Z,9.5
2019-04-05T02:51:13.717Z,9.5
2019-04-05T02:56:16.109Z,9.5
2019-04-05T03:01:18.551Z,9.6
2019-04-05T03:06:21.120Z,9.6
2019-04-05T03:11:23.468Z,9.6
2019-04-05T03:16:38.979Z,9.6
2019-04-05T03:21:28.433Z,9.6
2019-04-05T03:26:30.925Z,9.6
2019-04-05T03:31:33.299Z,9.6
2019-04-05T03:36:35.881Z,9.6
2019-04-05T03:41:38.264Z,9.6
2019-04-05T03:46:55.192Z,9.6
2019-04-05T03:51:43.145Z,9.7
2019-04-05T03:56:45.600Z,9.7
2019-04-05T04:01:48.046Z,9.6
2019-04-05T04:11:53.017Z,9.6
2019-04-05T04:17:10.852Z,9.6
2019-04-05T04:21:58.081Z,9.6
2019-04-05T04:27:00.397Z,9.6
2019-04-05T04:32:02.788Z,9.6
2019-04-05T04:42:07.716Z,9.6
2019-04-05T04:47:10.175Z,9.6
2019-04-05T04:52:12.642Z,9.7
2019-04-05T04:57:15.081Z,9.6
2019-04-05T05:02:17.573Z,9.7
2019-04-05T05:07:19.996Z,9.7
2019-04-05T05:12:22.447Z,9.7
2019-04-05T05:17:37.337Z,9.8
2019-04-05T05:22:27.353Z,10
2019-04-05T05:27:29.823Z,10.1
2019-04-05T05:32:32.341Z,10.1
2019-04-05T05:37:34.846Z,10.1
2019-04-05T05:42:37.216Z,10.1
2019-04-05T05:47:50.965Z,10.2
2019-04-05T05:52:42.133Z,10.2
2019-04-05T05:57:44.566Z,10.2
2019-04-05T06:02:48.475Z,10.3
2019-04-05T06:07:49.554Z,10.4
2019-04-05T06:12:51.939Z,10.3
2019-04-05T06:18:04.062Z,10.3
2019-04-05T06:22:56.868Z,10.4
2019-04-05T06:27:59.854Z,10.5
2019-04-05T06:33:01.785Z,10.6
2019-04-05T06:38:04.339Z,10.8
2019-04-05T06:43:07.102Z,11
2019-04-05T06:48:18.785Z,11.2
2019-04-05T06:53:11.937Z,11.3
2019-04-05T06:58:19.506Z,11.5
2019-04-05T07:03:16.520Z,11.7
2019-04-05T07:08:19.069Z,11.9
2019-04-05T07:13:21.643Z,12.1
2019-04-05T07:18:32.863Z,12.4
2019-04-05T07:23:26.631Z,12.8
2019-04-05T07:28:28.820Z,13.1
2019-04-05T07:33:31.260Z,13.3
2019-04-05T07:38:33.824Z,13.5
2019-04-05T07:43:36.229Z,13.6
2019-04-05T07:48:44.460Z,13.7
2019-04-05T07:53:41.462Z,13.7
2019-04-05T07:58:43.575Z,13.7
2019-04-05T08:03:46.112Z,13.7
2019-04-05T08:08:48.565Z,13.7
2019-04-05T08:13:50.962Z,13.7
2019-04-05T08:18:57.859Z,13.6
2019-04-05T08:23:56.203Z,13.8
2019-04-05T08:28:58.308Z,14.1
2019-04-05T08:34:00.777Z,14.7
2019-04-05T08:39:03.253Z,15.3
2019-04-05T08:44:05.716Z,16.1
2019-04-05T08:49:10.786Z,17.1
2019-04-05T08:54:10.934Z,17.7
2019-04-05T08:59:13.613Z,18
2019-04-05T09:04:15.588Z,18
2019-04-05T09:09:17.978Z,18.2
2019-04-05T09:14:20.925Z,0
2019-04-05T09:19:24.001Z,0
2019-04-05T09:24:25.737Z,0
2019-04-05T09:29:27.860Z,0
2019-04-05T09:34:30.525Z,0
2019-04-05T09:39:32.854Z,0
2019-04-05T09:44:35.384Z,0
2019-04-05T09:49:37.802Z,0
2019-04-05T09:54:40.622Z,31.7
2019-04-05T09:59:42.719Z,31.9
2019-04-05T10:04:45.290Z,32.6
2019-04-05T10:09:50.301Z,33.4
2019-04-05T10:14:50.229Z,34.8
2019-04-05T10:19:52.599Z,36.2
2019-04-05T10:24:55.032Z,36.2
2019-04-05T10:29:57.509Z,37
2019-04-05T10:34:59.943Z,36.7
2019-04-05T10:40:02.574Z,37.3
2019-04-05T10:45:04.920Z,38.8
2019-04-05T10:50:07.339Z,40.1
2019-04-05T10:55:10.167Z,40.3
2019-04-05T11:00:12.384Z,40.6
2019-04-05T11:05:14.724Z,40.6
2019-04-05T11:10:17.184Z,40.6
2019-04-05T11:15:19.689Z,40
2019-04-05T11:20:22.345Z,40.1
2019-04-05T11:25:25.014Z,40.1
2019-04-05T11:30:27.104Z,39.5
2019-04-05T11:35:29.467Z,39.9
2019-04-05T11:40:32.041Z,39.9
2019-04-05T11:45:34.545Z,39.4
2019-04-05T11:50:36.919Z,38.1
2019-04-05T11:55:39.702Z,37.6
2019-04-05T12:00:41.851Z,36.7
2019-04-05T12:05:44.235Z,34.8
2019-04-05T12:10:46.704Z,33.7
2019-04-05T12:15:49.233Z,33.1
2019-04-05T12:20:59.511Z,31.8
2019-04-05T12:25:54.817Z,29.9
2019-04-05T12:30:56.534Z,28
2019-04-05T12:35:59.028Z,26.7
2019-04-05T12:41:01.508Z,25.8
2019-04-05T12:46:03.914Z,25.5
2019-04-05T12:51:06.499Z,25.3
2019-04-05T12:56:09.229Z,25.3
2019-04-05T13:01:11.297Z,24.8
2019-04-05T13:06:14.028Z,24.2
2019-04-05T13:11:16.266Z,23.4
2019-04-05T13:16:18.696Z,22.9
2019-04-05T13:21:21.162Z,22.5
2019-04-05T13:26:26.352Z,22.3
2019-04-05T13:31:26.035Z,22
2019-04-05T13:36:28.524Z,21.8
2019-04-05T13:41:32.154Z,21.7
2019-04-05T13:46:33.489Z,21.7
2019-04-05T13:51:35.885Z,21.5
2019-04-05T13:56:39.497Z,21.2
2019-04-05T14:01:40.867Z,21.1
2019-04-05T14:06:43.388Z,21
2019-04-05T14:11:45.751Z,21
2019-04-05T14:16:48.476Z,21.1
2019-04-05T14:21:53.466Z,21.4
2019-04-05T14:26:53.499Z,21.3
2019-04-05T14:31:55.682Z,21
2019-04-05T14:36:58.149Z,20.7
2019-04-05T14:42:09.359Z,20.6
2019-04-05T14:47:03.402Z,20.4
2019-04-05T14:57:07.855Z,19.5
2019-04-05T15:02:10.286Z,19.4
2019-04-05T15:07:12.986Z,19.5
2019-04-05T15:12:15.218Z,19.5
2019-04-05T15:17:17.945Z,19.2
2019-04-05T15:22:20.177Z,18.8
2019-04-05T15:27:22.914Z,18.3
2019-04-05T15:32:25.413Z,17.8
2019-04-05T15:37:27.526Z,17.8
2019-04-05T15:42:29.977Z,18
2019-04-05T15:47:32.456Z,18.3
2019-04-05T15:52:34.890Z,18.3
2019-04-05T16:02:42.652Z,17.6
2019-04-05T16:07:42.243Z,17.2
2019-04-05T16:12:44.738Z,16.9
2019-04-05T16:17:47.193Z,16.6
2019-04-05T16:22:49.692Z,16.4
2019-04-05T16:27:52.220Z,16.2
2019-04-05T16:32:54.616Z,16.1
2019-04-05T16:43:02.552Z,15.9
2019-04-05T16:48:02.007Z,15.8
2019-04-05T16:53:04.425Z,15.7
2019-04-05T16:58:06.835Z,15.6
2019-04-05T17:03:09.283Z,15.5
2019-04-05T17:08:11.767Z,15.4
2019-04-05T17:13:14.207Z,15.3
2019-04-05T17:18:16.698Z,15.2
2019-04-05T17:23:19.236Z,15.1
2019-04-05T17:28:21.776Z,15
2019-04-05T17:33:24.088Z,14.9
2019-04-05T17:38:26.528Z,14.8
2019-04-05T17:43:29.040Z,14.7
2019-04-05T17:48:31.406Z,14.7
2019-04-05T17:53:33.887Z,14.6
2019-04-05T17:58:36.381Z,14.5
2019-04-05T18:03:38.782Z,14.5
2019-04-05T18:08:41.245Z,14.4
2019-04-05T18:13:43.701Z,14.3
2019-04-05T18:18:46.198Z,14.1
2019-04-05T18:23:48.727Z,14
2019-04-05T18:28:51.111Z,13.8
2019-04-05T18:33:53.566Z,13.6
2019-04-05T18:38:55.975Z,13.4
2019-04-05T18:43:58.433Z,13.2
2019-04-05T18:49:00.897Z,13
2019-04-05T18:54:03.443Z,12.8
2019-04-05T18:59:05.814Z,12.6
2019-04-05T19:04:08.283Z,12.4
2019-04-05T19:09:11.990Z,12.4
2019-04-05T19:14:13.195Z,12.2
2019-04-05T19:19:17.701Z,12.2
2019-04-05T19:24:18.116Z,12
2019-04-05T19:29:20.630Z,11.9
2019-04-05T19:49:30.451Z,11.5
2019-04-05T19:54:32.914Z,11.3
2019-04-05T19:59:35.366Z,11.2
2019-04-05T20:04:37.814Z,11
2019-04-05T20:09:40.273Z,10.7
2019-04-05T20:14:42.673Z,10.5
2019-04-05T20:19:45.193Z,10.3
2019-04-05T20:24:47.677Z,10.1
2019-04-05T20:29:50.103Z,9.9
2019-04-05T20:34:52.499Z,9.6
2019-04-05T20:39:54.949Z,9.4
2019-04-05T20:44:57.491Z,9.2
2019-04-05T20:49:59.877Z,9
2019-04-05T20:55:02.408Z,8.9
2019-04-05T21:00:04.807Z,8.7
2019-04-05T21:05:07.265Z,8.6
2019-04-05T21:10:09.700Z,8.5
2019-04-05T21:15:12.194Z,8.4
2019-04-05T21:20:14.648Z,8.3
2019-04-05T21:25:17.082Z,8.3
2019-04-05T21:30:19.778Z,8.2
2019-04-05T21:35:22.236Z,8.2
2019-04-05T21:40:24.469Z,8
2019-04-05T21:45:26.969Z,7.8
2019-04-05T21:50:29.354Z,7.7
2019-04-05T21:55:31.838Z,7.6
2019-04-05T22:00:34.333Z,7.6
2019-04-05T22:05:36.788Z,7.5
2019-04-05T22:10:39.301Z,7.5
2019-04-05T22:15:41.657Z,7.4
2019-04-05T22:20:44.132Z,7.5
2019-04-05T22:25:46.665Z,7.4
2019-04-05T22:30:49.021Z,7.3
2019-04-05T22:40:53.945Z,7.1
2019-04-05T22:45:56.606Z,7.1
2019-04-05T22:50:58.877Z,7.1
2019-04-05T22:56:01.328Z,7.1
2019-04-05T23:01:03.784Z,7.2
2019-04-05T23:06:06.327Z,7.2
2019-04-05T23:11:08.707Z,7.4
2019-04-05T23:16:11.198Z,7.6
2019-04-05T23:21:13.667Z,7.7
2019-04-05T23:26:16.076Z,7.7
2019-04-05T23:31:18.558Z,7.6
2019-04-05T23:36:21.014Z,7.5
2019-04-05T23:41:23.490Z,7.3
2019-04-05T23:46:25.959Z,7.1
2019-04-05T23:51:28.382Z,6.9
2019-04-05T23:56:30.844Z,6.8
